Time;durP1;ratioP1;P1;durP2;ratioP2;P2;SDS_P1;SDS_P2;PMS_P1;PMS_P2;Temp;Humidity;BMP_temperature;BMP_pressure;BME280_temperature;BME280_humidity;BME280_pressure;Samples;Min_cycle;Max_cycle;Signal;HPM_P1;HPM_P2
2022/11/29 00:01:22;;;;;;;21.90;19.27;;;7.30;99.90;;;;;;5091457;28;20295;-52
2022/11/29 00:03:53;;;;;;;281.63;96.63;;;7.40;99.90;;;;;;5091234;28;20207;-51
2022/11/29 00:06:23;;;;;;;83.40;36.77;;;7.40;99.90;;;;;;5090796;28;20239;-51
2022/11/29 00:08:51;;;;;;;97.83;35.50;;;7.30;99.90;;;;;;5063547;28;20203;-52
2022/11/29 00:14:04;;;;;;;85.23;42.43;;;7.30;99.90;;;;;;5090737;28;20207;-52
2022/11/29 00:16:33;;;;;;;180.03;66.27;;;7.30;99.90;;;;;;5088839;28;20314;-51
2022/11/29 00:19:03;;;;;;;139.17;51.07;;;7.40;99.90;;;;;;5091183;28;20210;-53
2022/11/29 00:21:31;;;;;;;126.40;54.43;;;7.40;99.90;;;;;;5091623;28;20318;-52
2022/11/29 00:23:59;;;;;;;540.93;190.57;;;7.40;99.90;;;;;;5091071;28;20216;-52
2022/11/29 00:26:27;;;;;;;168.27;63.30;;;7.40;99.90;;;;;;5091244;28;20228;-52
2022/11/29 00:28:55;;;;;;;442.77;137.17;;;7.40;99.90;;;;;;5079286;28;20231;-53
2022/11/29 00:31:25;;;;;;;53.63;30.77;;;7.40;99.90;;;;;;5085050;28;20717;-52
2022/11/29 00:33:54;;;;;;;506.80;202.93;;;7.40;99.90;;;;;;5082784;28;20207;-52
2022/11/29 00:36:23;;;;;;;62.70;32.53;;;7.40;99.90;;;;;;5086035;28;20307;-52
2022/11/29 00:38:51;;;;;;;67.37;36.07;;;7.40;99.90;;;;;;5091213;28;20290;-52
2022/11/29 00:41:20;;;;;;;33.30;25.33;;;7.40;99.90;;;;;;5090775;28;20295;-52
2022/11/29 00:43:48;;;;;;;22.47;20.23;;;7.40;99.90;;;;;;5090303;28;20231;-53
2022/11/29 00:46:16;;;;;;;351.03;125.53;;;7.40;99.90;;;;;;5090530;28;20307;-52
2022/11/29 00:48:44;;;;;;;29.43;26.60;;;7.50;99.90;;;;;;5085402;28;20679;-52
2022/11/29 00:51:13;;;;;;;277.57;89.07;;;7.50;99.90;;;;;;5085328;28;20217;-53
2022/11/29 00:53:42;;;;;;;168.57;82.63;;;7.50;99.90;;;;;;5081627;28;20224;-52
2022/11/29 00:56:10;;;;;;;16.50;14.97;;;7.40;99.90;;;;;;5090395;28;20787;-52
2022/11/29 00:58:38;;;;;;;24.90;22.77;;;7.40;99.90;;;;;;5076367;28;20292;-52
2022/11/29 01:01:06;;;;;;;263.70;102.57;;;7.50;99.90;;;;;;5090067;28;20200;-53
2022/11/29 01:03:34;;;;;;;115.13;48.53;;;7.40;99.90;;;;;;5089731;28;20195;-52
2022/11/29 01:06:03;;;;;;;16.63;15.00;;;7.50;99.90;;;;;;5090077;28;20228;-51
2022/11/29 01:08:32;;;;;;;16.73;14.93;;;7.50;99.90;;;;;;5090312;28;20300;-53
2022/11/29 01:11:10;;;;;;;31.33;26.10;;;7.50;99.90;;;;;;5076611;28;20603;-52
2022/11/29 01:13:39;;;;;;;93.97;37.63;;;7.50;99.90;;;;;;5089746;28;20224;-53
2022/11/29 01:16:08;;;;;;;290.87;106.60;;;7.50;99.90;;;;;;5090520;28;20228;-52
2022/11/29 01:18:37;;;;;;;225.20;80.43;;;7.50;99.90;;;;;;5089719;28;20240;-52
2022/11/29 01:21:07;;;;;;;228.70;83.23;;;7.50;99.90;;;;;;5090454;28;20286;-53
2022/11/29 01:23:36;;;;;;;308.37;99.03;;;7.40;99.90;;;;;;5089582;28;20207;-52
2022/11/29 01:26:07;;;;;;;148.07;49.27;;;7.40;99.90;;;;;;5083614;28;20304;-52
2022/11/29 01:28:37;;;;;;;260.27;87.63;;;7.40;99.90;;;;;;5079265;28;20662;-52
2022/11/29 01:31:06;;;;;;;354.57;111.97;;;7.40;99.90;;;;;;5080139;28;20647;-52
2022/11/29 01:33:35;;;;;;;78.13;44.73;;;7.40;99.90;;;;;;5073562;28;20220;-52
2022/11/29 01:36:05;;;;;;;17.03;14.00;;;7.40;99.90;;;;;;5066975;28;20336;-51
2022/11/29 01:38:33;;;;;;;54.10;32.17;;;7.40;99.90;;;;;;5066049;28;20204;-52
2022/11/29 01:41:04;;;;;;;24.53;22.17;;;7.50;99.90;;;;;;5061236;28;20274;-52
2022/11/29 01:43:34;;;;;;;21.80;19.70;;;7.50;99.90;;;;;;5068721;28;20296;-52
2022/11/29 01:46:02;;;;;;;113.77;56.00;;;7.50;99.90;;;;;;5069657;28;20234;-51
2022/11/29 01:48:33;;;;;;;233.10;73.73;;;7.50;99.90;;;;;;5064096;28;20208;-52
2022/11/29 01:51:01;;;;;;;191.13;90.43;;;7.50;99.90;;;;;;5069085;28;20209;-52
2022/11/29 01:53:29;;;;;;;322.37;123.03;;;7.50;99.90;;;;;;5069091;28;20390;-52
2022/11/29 01:56:03;;;;;;;25.97;21.63;;;7.60;99.90;;;;;;5069414;28;20312;-53
2022/11/29 01:58:33;;;;;;;39.17;26.10;;;7.60;99.90;;;;;;5069672;28;20251;-53
2022/11/29 02:01:01;;;;;;;27.80;24.80;;;7.50;99.90;;;;;;5068129;28;20215;-52
2022/11/29 02:03:29;;;;;;;49.17;29.63;;;7.60;99.90;;;;;;5069018;28;20296;-53
2022/11/29 02:05:57;;;;;;;29.63;20.70;;;7.60;99.90;;;;;;5069007;28;20311;-52
2022/11/29 02:08:31;;;;;;;217.43;52.03;;;7.60;99.90;;;;;;5069583;28;20287;-53
2022/11/29 02:11:20;;;;;;;181.13;74.23;;;7.60;99.90;;;;;;5070249;28;20205;-53
2022/11/29 02:14:01;;;;;;;362.77;102.40;;;7.50;99.90;;;;;;5069006;28;20316;-51
2022/11/29 02:16:37;;;;;;;17.00;15.33;;;7.40;99.90;;;;;;5070155;28;20228;-52
2022/11/29 02:19:21;;;;;;;19.40;17.33;;;7.50;99.90;;;;;;5069871;28;20209;-51
2022/11/29 02:21:56;;;;;;;91.53;47.63;;;7.50;99.90;;;;;;5068861;28;20213;-53
2022/11/29 02:24:43;;;;;;;24.00;21.13;;;7.50;99.90;;;;;;5068949;28;20738;-52
2022/11/29 02:27:44;;;;;;;71.83;36.30;;;7.50;99.90;;;;;;5068204;28;20233;-53
2022/11/29 02:30:23;;;;;;;117.47;51.60;;;7.50;99.90;;;;;;5071060;28;20301;-53
2022/11/29 02:33:08;;;;;;;251.20;107.03;;;7.50;99.90;;;;;;5072289;28;20233;-52
2022/11/29 02:35:56;;;;;;;34.50;29.27;;;7.50;99.90;;;;;;5073423;28;20292;-53
2022/11/29 02:38:45;;;;;;;49.40;33.53;;;7.50;99.90;;;;;;5074961;28;20216;-52
2022/11/29 02:41:27;;;;;;;28.57;25.80;;;7.60;99.90;;;;;;5075524;28;20308;-53
2022/11/29 02:44:18;;;;;;;26.43;23.83;;;7.60;99.90;;;;;;5075013;28;20205;-53
2022/11/29 02:47:03;;;;;;;286.13;99.73;;;7.60;99.90;;;;;;5075013;28;20225;-52
2022/11/29 02:49:48;;;;;;;75.70;37.90;;;7.60;99.90;;;;;;5075382;28;20232;-52
2022/11/29 02:52:22;;;;;;;100.83;40.37;;;7.60;99.90;;;;;;5075072;28;20638;-52
2022/11/29 02:54:57;;;;;;;24.83;21.23;;;7.60;99.90;;;;;;5075272;28;20311;-52
2022/11/29 02:57:33;;;;;;;36.27;28.33;;;7.70;99.90;;;;;;5075058;28;20220;-53
2022/11/29 03:00:07;;;;;;;48.23;26.27;;;7.60;99.90;;;;;;5075355;28;20291;-52
2022/11/29 03:02:41;;;;;;;39.67;27.23;;;7.60;99.90;;;;;;5070091;28;20284;-52
2022/11/29 03:05:18;;;;;;;101.70;35.60;;;7.60;99.90;;;;;;5075606;28;20231;-52
2022/11/29 03:07:54;;;;;;;154.40;63.43;;;7.60;99.90;;;;;;5062571;28;20240;-52
2022/11/29 03:10:33;;;;;;;175.37;60.23;;;7.60;99.90;;;;;;5074320;28;20208;-52
2022/11/29 03:13:05;;;;;;;97.53;30.53;;;7.60;99.90;;;;;;5074892;28;20291;-52
2022/11/29 03:15:41;;;;;;;274.90;114.73;;;7.60;99.90;;;;;;5075354;28;20292;-52
2022/11/29 03:18:27;;;;;;;151.10;53.47;;;7.50;99.90;;;;;;5075099;28;20208;-53
2022/11/29 03:21:07;;;;;;;87.67;29.33;;;7.60;99.90;;;;;;5074474;28;20200;-52
2022/11/29 03:23:39;;;;;;;114.03;42.13;;;7.50;99.90;;;;;;5068054;28;20251;-51
2022/11/29 03:26:10;;;;;;;199.43;63.50;;;7.50;99.90;;;;;;5069401;28;20320;-52
2022/11/29 03:28:42;;;;;;;60.30;33.53;;;7.50;99.90;;;;;;5062127;28;20196;-52
2022/11/29 03:31:20;;;;;;;202.07;73.23;;;7.60;99.90;;;;;;5074283;28;20295;-52
2022/11/29 03:33:57;;;;;;;807.57;247.70;;;7.50;99.90;;;;;;5061843;28;20230;-53
2022/11/29 03:36:38;;;;;;;43.00;28.10;;;7.50;99.90;;;;;;5064100;28;20316;-52
2022/11/29 03:39:13;;;;;;;321.00;92.67;;;7.50;99.90;;;;;;5075571;28;20288;-52
2022/11/29 03:41:46;;;;;;;60.97;37.07;;;7.50;99.90;;;;;;5072537;28;20214;-52
2022/11/29 03:44:18;;;;;;;343.03;125.70;;;7.50;99.90;;;;;;5071747;28;20276;-52
2022/11/29 03:46:54;;;;;;;40.10;29.43;;;7.60;99.90;;;;;;5071351;28;20312;-52
2022/11/29 03:49:26;;;;;;;431.83;152.33;;;7.60;99.90;;;;;;5070682;28;20719;-51
2022/11/29 03:52:06;;;;;;;122.23;52.87;;;7.60;99.90;;;;;;5071211;28;20291;-52
2022/11/29 03:54:46;;;;;;;247.73;88.53;;;7.60;99.90;;;;;;5058037;28;20220;-52
2022/11/29 03:57:20;;;;;;;28.57;22.77;;;7.60;99.90;;;;;;5071605;28;20225;-52
2022/11/29 04:00:01;;;;;;;34.83;24.50;;;7.50;99.90;;;;;;5071404;28;20661;-52
2022/11/29 04:03:13;;;;;;;76.00;41.90;;;7.60;99.90;;;;;;5071310;28;20208;-53
2022/11/29 04:06:10;;;;;;;198.40;72.03;;;7.60;99.90;;;;;;5071345;28;20939;-52
2022/11/29 04:09:25;;;;;;;33.47;30.10;;;7.60;99.90;;;;;;5061451;28;20212;-53
2022/11/29 04:12:41;;;;;;;63.63;34.73;;;7.60;99.90;;;;;;5071011;28;20302;-53
2022/11/29 04:15:41;;;;;;;360.30;99.50;;;7.60;99.90;;;;;;5070318;28;20316;-53
2022/11/29 04:18:47;;;;;;;103.10;31.77;;;7.60;99.90;;;;;;5064981;28;20580;-52
2022/11/29 04:21:41;;;;;;;138.60;62.50;;;7.60;99.90;;;;;;5034187;28;20329;-52
2022/11/29 04:24:45;;;;;;;78.60;38.00;;;7.60;99.90;;;;;;5071038;28;20247;-52
2022/11/29 04:27:34;;;;;;;42.20;31.57;;;7.60;99.90;;;;;;5070440;28;20732;-52
2022/11/29 04:30:16;;;;;;;37.33;24.87;;;7.60;99.90;;;;;;5070944;28;20296;-52
2022/11/29 04:33:16;;;;;;;237.53;89.73;;;7.60;99.90;;;;;;5070715;28;20304;-52
2022/11/29 04:36:18;;;;;;;41.07;29.60;;;7.60;99.90;;;;;;5070794;28;20225;-51
2022/11/29 04:39:13;;;;;;;170.53;70.57;;;7.60;99.90;;;;;;5070996;28;20300;-53
2022/11/29 04:42:01;;;;;;;250.27;94.43;;;7.60;99.90;;;;;;5070743;28;20299;-53
2022/11/29 04:44:54;;;;;;;165.23;54.97;;;7.60;99.90;;;;;;5056593;28;20682;-52
2022/11/29 04:47:55;;;;;;;88.90;38.67;;;7.60;99.90;;;;;;5069485;28;20310;-52
2022/11/29 04:50:33;;;;;;;107.20;43.00;;;7.70;99.90;;;;;;5059389;28;20232;-52
2022/11/29 04:53:30;;;;;;;150.60;60.07;;;7.60;99.90;;;;;;5057448;28;20208;-52
2022/11/29 04:56:08;;;;;;;40.30;25.17;;;7.60;99.90;;;;;;5069878;28;21071;-52
2022/11/29 04:58:43;;;;;;;173.60;69.97;;;7.60;99.90;;;;;;5070386;28;20315;-52
2022/11/29 05:01:23;;;;;;;179.90;64.07;;;7.60;99.90;;;;;;5070460;28;20626;-51
2022/11/29 05:03:58;;;;;;;48.63;27.77;;;7.60;99.90;;;;;;5069855;28;20220;-53
2022/11/29 05:06:35;;;;;;;37.23;27.50;;;7.60;99.90;;;;;;5056177;28;20339;-53
2022/11/29 05:09:09;;;;;;;217.53;83.57;;;7.60;99.90;;;;;;5069892;28;20322;-52
2022/11/29 05:11:49;;;;;;;384.67;129.33;;;7.60;99.90;;;;;;5053036;28;20207;-53
2022/11/29 05:14:26;;;;;;;53.10;32.20;;;7.60;99.90;;;;;;5064710;28;20375;-52
2022/11/29 05:17:09;;;;;;;293.30;100.97;;;7.60;99.90;;;;;;5069292;28;20693;-52
2022/11/29 05:19:54;;;;;;;281.67;80.33;;;7.60;99.90;;;;;;5068818;28;20211;-52
2022/11/29 05:22:31;;;;;;;190.97;75.33;;;7.60;99.90;;;;;;5060770;28;20291;-52
2022/11/29 05:25:12;;;;;;;145.00;54.53;;;7.60;99.90;;;;;;5063014;28;20301;-53
2022/11/29 05:27:46;;;;;;;391.13;138.37;;;7.60;99.90;;;;;;5069152;28;20224;-52
2022/11/29 05:30:15;;;;;;;394.27;152.33;;;7.60;99.90;;;;;;5069648;28;20915;-52
2022/11/29 05:32:57;;;;;;;50.37;32.33;;;7.60;99.90;;;;;;5069463;28;20252;-51
2022/11/29 05:35:52;;;;;;;97.63;42.23;;;7.60;99.90;;;;;;5055136;28;20232;-52
2022/11/29 05:38:43;;;;;;;207.63;73.27;;;7.60;99.90;;;;;;5069856;28;20296;-52
2022/11/29 05:41:38;;;;;;;97.13;33.70;;;7.60;99.90;;;;;;5069846;28;20295;-53
2022/11/29 05:44:12;;;;;;;31.17;21.87;;;7.60;99.90;;;;;;5069101;28;20208;-53
2022/11/29 05:46:51;;;;;;;106.70;48.93;;;7.60;99.90;;;;;;5069689;28;20322;-52
2022/11/29 05:49:33;;;;;;;49.60;26.83;;;7.60;99.90;;;;;;5069161;28;20201;-52
2022/11/29 05:52:18;;;;;;;39.20;24.03;;;7.60;99.90;;;;;;5069192;28;20295;-53
2022/11/29 05:54:58;;;;;;;72.00;34.43;;;7.60;99.90;;;;;;5068716;28;20221;-52
2022/11/29 05:57:33;;;;;;;146.67;65.57;;;7.70;99.90;;;;;;5068157;28;20308;-53
2022/11/29 06:00:03;;;;;;;95.17;37.77;;;7.60;99.90;;;;;;5069528;28;20637;-52
2022/11/29 06:02:43;;;;;;;122.63;62.37;;;7.70;99.90;;;;;;5060126;28;20227;-52
2022/11/29 06:05:17;;;;;;;147.27;52.50;;;7.70;99.90;;;;;;5068040;28;20208;-53
2022/11/29 06:07:53;;;;;;;57.73;35.20;;;7.70;99.90;;;;;;5068466;28;20232;-52
2022/11/29 06:10:25;;;;;;;42.83;29.43;;;7.70;99.90;;;;;;5069294;28;20780;-53
2022/11/29 06:13:08;;;;;;;99.47;45.17;;;7.60;99.90;;;;;;5068611;28;20212;-53
2022/11/29 06:15:58;;;;;;;58.33;29.50;;;7.70;99.90;;;;;;5065274;28;20246;-53
2022/11/29 06:18:54;;;;;;;199.77;65.00;;;7.70;99.90;;;;;;5035916;28;20285;-53
2022/11/29 06:21:36;;;;;;;26.43;21.33;;;7.70;99.90;;;;;;5066877;28;20758;-53
2022/11/29 06:24:35;;;;;;;116.00;52.10;;;7.70;99.90;;;;;;5068351;28;20292;-53
2022/11/29 06:27:35;;;;;;;87.47;36.10;;;7.70;99.90;;;;;;5068747;28;20789;-53
2022/11/29 06:30:08;;;;;;;163.90;71.33;;;7.70;99.90;;;;;;5067972;28;20244;-53
2022/11/29 06:32:45;;;;;;;71.77;35.70;;;7.60;99.90;;;;;;5067607;28;20237;-53
2022/11/29 06:35:38;;;;;;;44.30;31.13;;;7.60;99.90;;;;;;5067866;28;20232;-53
2022/11/29 06:38:13;;;;;;;41.53;32.67;;;7.60;99.90;;;;;;5069000;28;20205;-53
2022/11/29 06:40:42;;;;;;;279.73;118.63;;;7.70;99.90;;;;;;5068653;28;20287;-52
2022/11/29 06:43:10;;;;;;;39.20;32.07;;;7.70;99.90;;;;;;5066691;28;20648;-52
2022/11/29 06:45:41;;;;;;;189.23;89.47;;;7.70;99.90;;;;;;5063434;28;20287;-52
2022/11/29 06:48:12;;;;;;;130.20;54.33;;;7.70;99.90;;;;;;5059681;28;20634;-53
2022/11/29 06:50:49;;;;;;;241.37;76.63;;;7.70;99.90;;;;;;5068544;28;20216;-53
2022/11/29 06:53:24;;;;;;;255.17;95.13;;;7.70;99.90;;;;;;5061641;28;20219;-53
2022/11/29 06:55:57;;;;;;;201.37;64.90;;;7.70;99.90;;;;;;5068110;28;20310;-53
2022/11/29 06:58:37;;;;;;;378.97;113.97;;;7.70;99.90;;;;;;5069019;28;20330;-53
2022/11/29 07:01:16;;;;;;;386.93;115.60;;;7.70;99.90;;;;;;5069202;28;20204;-53
2022/11/29 07:04:25;;;;;;;197.73;75.37;;;7.70;99.90;;;;;;5069708;28;20220;-53
2022/11/29 07:06:53;;;;;;;117.23;45.37;;;7.70;99.90;;;;;;5060097;28;20307;-53
2022/11/29 07:09:28;;;;;;;85.63;56.63;;;7.70;99.90;;;;;;5070389;28;20243;-53
2022/11/29 07:11:56;;;;;;;43.07;34.87;;;7.70;99.90;;;;;;5070126;28;20294;-52
2022/11/29 07:14:25;;;;;;;108.50;52.70;;;7.70;99.90;;;;;;5068515;28;20209;-52
2022/11/29 07:17:03;;;;;;;64.53;29.23;;;7.70;99.90;;;;;;5070309;28;20605;-52
2022/11/29 07:19:41;;;;;;;37.33;25.33;;;7.70;99.90;;;;;;5072824;28;20510;-53
2022/11/29 07:22:26;;;;;;;77.23;36.63;;;7.70;99.90;;;;;;5071953;28;20295;-53
2022/11/29 07:25:02;;;;;;;160.80;57.20;;;7.70;99.90;;;;;;5071002;28;20240;-53
2022/11/29 07:27:38;;;;;;;225.93;70.03;;;7.70;99.90;;;;;;5063878;28;20347;-53
2022/11/29 07:30:12;;;;;;;88.73;39.20;;;7.70;99.90;;;;;;5067238;28;20254;-53
2022/11/29 07:32:51;;;;;;;317.17;84.80;;;7.70;99.90;;;;;;5072159;28;20291;-53
2022/11/29 07:35:34;;;;;;;367.97;151.57;;;7.70;99.90;;;;;;5072028;28;20221;-53
2022/11/29 07:38:09;;;;;;;79.87;34.30;;;7.70;99.90;;;;;;5071936;28;20205;-52
2022/11/29 07:40:49;;;;;;;128.63;53.87;;;7.70;99.90;;;;;;5072160;28;20634;-52
2022/11/29 07:43:28;;;;;;;43.90;26.53;;;7.70;99.90;;;;;;5071595;28;20312;-51
2022/11/29 07:45:57;;;;;;;93.40;46.07;;;7.70;99.90;;;;;;5068813;28;20300;-52
2022/11/29 07:48:25;;;;;;;256.60;89.93;;;7.70;99.90;;;;;;5063652;28;20212;-52
2022/11/29 07:50:54;;;;;;;358.40;103.97;;;7.80;99.90;;;;;;5067097;28;20241;-53
2022/11/29 07:53:23;;;;;;;152.97;51.10;;;7.80;99.90;;;;;;5071211;28;20625;-53
2022/11/29 07:55:52;;;;;;;83.80;51.10;;;7.80;99.90;;;;;;5056546;28;20319;-53
2022/11/29 07:58:20;;;;;;;254.53;73.50;;;7.90;99.90;;;;;;5071501;28;20663;-53
2022/11/29 08:00:48;;;;;;;257.33;89.00;;;7.90;99.90;;;;;;5071612;28;20577;-51
2022/11/29 08:03:16;;;;;;;178.93;58.73;;;7.90;99.90;;;;;;5071232;28;20204;-53
2022/11/29 08:05:47;;;;;;;147.50;54.53;;;8.00;99.90;;;;;;5071260;28;20296;-52
2022/11/29 08:08:16;;;;;;;184.77;57.03;;;7.90;99.90;;;;;;5071229;28;20241;-52
2022/11/29 08:10:45;;;;;;;216.03;67.40;;;7.90;99.90;;;;;;5071244;28;20217;-53
2022/11/29 08:13:14;;;;;;;231.23;88.00;;;7.90;99.90;;;;;;5070319;28;20212;-53
2022/11/29 08:15:46;;;;;;;163.43;54.63;;;7.90;99.90;;;;;;5071251;28;20310;-53
2022/11/29 08:18:15;;;;;;;56.40;34.97;;;7.90;99.90;;;;;;5070872;28;20585;-53
2022/11/29 08:20:45;;;;;;;304.37;121.83;;;7.90;99.90;;;;;;5071206;28;20292;-51
2022/11/29 08:23:13;;;;;;;253.10;82.87;;;8.00;99.90;;;;;;5070548;28;20201;-53
2022/11/29 08:25:41;;;;;;;525.57;141.73;;;8.10;99.90;;;;;;5070247;28;20320;-52
2022/11/29 08:28:10;;;;;;;74.27;29.97;;;8.10;99.90;;;;;;5070266;28;20242;-52
2022/11/29 08:30:39;;;;;;;36.20;30.60;;;8.10;99.90;;;;;;5070887;28;20628;-51
2022/11/29 08:33:07;;;;;;;62.33;27.10;;;8.10;99.90;;;;;;5070015;28;20652;-52
2022/11/29 08:35:35;;;;;;;164.53;56.17;;;8.10;99.90;;;;;;5071156;28;20204;-53
2022/11/29 08:38:03;;;;;;;401.80;113.87;;;8.10;99.90;;;;;;5070417;28;20211;-53
2022/11/29 08:40:32;;;;;;;125.70;41.43;;;8.20;99.90;;;;;;5065740;28;20312;-52
2022/11/29 08:43:00;;;;;;;499.23;177.77;;;8.20;99.90;;;;;;5063221;28;20209;-53
2022/11/29 08:45:28;;;;;;;426.80;150.73;;;8.20;99.90;;;;;;5070821;28;20215;-53
2022/11/29 08:47:57;;;;;;;808.53;307.47;;;8.20;99.90;;;;;;5062472;28;20222;-52
2022/11/29 08:50:25;;;;;;;30.93;21.33;;;8.20;99.90;;;;;;5066931;28;20701;-53
2022/11/29 08:55:41;;;;;;;39.87;25.80;;;8.30;99.90;;;;;;5069955;28;20295;-53
2022/11/29 08:58:12;;;;;;;33.63;23.97;;;8.40;99.90;;;;;;5069890;28;20205;-52
2022/11/29 09:00:42;;;;;;;331.83;108.10;;;8.40;99.90;;;;;;5070040;28;20291;-52
2022/11/29 09:05:58;;;;;;;30.27;26.20;;;8.40;99.90;;;;;;5063666;28;20316;-52
2022/11/29 09:08:26;;;;;;;95.47;29.37;;;8.40;99.90;;;;;;5063271;28;20201;-51
2022/11/29 09:10:54;;;;;;;178.33;50.77;;;8.50;99.90;;;;;;5069567;28;20219;-52
2022/11/29 09:13:22;;;;;;;488.73;154.53;;;8.50;99.90;;;;;;5069113;28;20229;-52
2022/11/29 09:15:50;;;;;;;202.43;95.63;;;8.60;99.90;;;;;;5069571;28;20688;-53
2022/11/29 09:18:21;;;;;;;109.77;44.07;;;8.50;99.90;;;;;;5068580;28;20242;-52
2022/11/29 09:20:49;;;;;;;71.87;37.10;;;8.50;99.90;;;;;;5069922;28;20211;-52
2022/11/29 09:23:17;;;;;;;81.77;38.30;;;8.60;99.90;;;;;;5069270;28;20236;-51
2022/11/29 09:25:48;;;;;;;104.47;42.33;;;8.60;99.90;;;;;;5069746;28;20247;-52
2022/11/29 09:28:16;;;;;;;1266.13;423.27;;;8.60;99.90;;;;;;5069592;28;20207;-53
2022/11/29 09:30:44;;;;;;;646.93;218.90;;;8.60;99.90;;;;;;5067567;28;20289;-53
2022/11/29 09:33:12;;;;;;;469.20;121.97;;;8.70;99.90;;;;;;5066913;28;20784;-52
2022/11/29 09:35:42;;;;;;;299.00;94.63;;;8.70;99.90;;;;;;5064094;28;20205;-54
2022/11/29 09:38:11;;;;;;;336.77;121.73;;;8.70;99.90;;;;;;5068638;28;20213;-52
2022/11/29 09:40:44;;;;;;;256.27;95.30;;;8.70;99.90;;;;;;5055892;28;20200;-51
2022/11/29 09:43:22;;;;;;;528.97;222.80;;;8.70;99.90;;;;;;5067259;28;20247;-52
2022/11/29 09:45:59;;;;;;;442.67;131.47;;;8.80;99.90;;;;;;5069319;28;20284;-51
2022/11/29 09:49:02;;;;;;;35.37;27.97;;;8.80;99.90;;;;;;5069664;28;20209;-52
2022/11/29 09:51:40;;;;;;;79.90;37.83;;;8.90;99.90;;;;;;5064101;28;20205;-53
2022/11/29 09:54:26;;;;;;;142.67;53.77;;;8.90;99.90;;;;;;5066219;28;20583;-52
2022/11/29 09:56:56;;;;;;;573.17;155.33;;;9.00;99.90;;;;;;5069039;28;20316;-51
2022/11/29 09:59:28;;;;;;;116.57;46.33;;;9.00;99.90;;;;;;5066601;28;20308;-53
2022/11/29 10:02:03;;;;;;;54.70;33.13;;;9.00;99.90;;;;;;5057669;28;20734;-53
2022/11/29 10:04:39;;;;;;;193.63;63.70;;;9.00;99.90;;;;;;5068257;28;20220;-54
2022/11/29 10:07:18;;;;;;;87.40;34.97;;;9.00;99.90;;;;;;5068982;28;20753;-54
2022/11/29 10:09:50;;;;;;;295.30;74.93;;;9.10;99.90;;;;;;5055958;28;20209;-53
2022/11/29 10:12:22;;;;;;;615.67;178.83;;;9.10;99.90;;;;;;5068664;28;20211;-53
2022/11/29 10:14:55;;;;;;;183.67;66.67;;;9.20;99.90;;;;;;5069021;28;20227;-53
2022/11/29 10:17:33;;;;;;;171.13;60.73;;;9.20;99.90;;;;;;5068493;28;20243;-54
2022/11/29 10:20:09;;;;;;;431.03;118.00;;;9.20;99.90;;;;;;5068577;28;20713;-54
2022/11/29 10:22:48;;;;;;;142.93;39.37;;;9.20;99.90;;;;;;5061554;28;20211;-54
2022/11/29 10:25:22;;;;;;;519.17;142.53;;;9.20;99.90;;;;;;5055477;28;20289;-54
2022/11/29 10:27:51;;;;;;;214.83;72.80;;;9.20;99.90;;;;;;5068835;28;20232;-52
2022/11/29 10:30:19;;;;;;;401.90;89.00;;;9.30;99.90;;;;;;5068549;28;20213;-53
2022/11/29 10:32:52;;;;;;;186.77;58.10;;;9.30;99.90;;;;;;5068072;28;20215;-54
2022/11/29 10:35:21;;;;;;;296.10;71.70;;;9.30;99.90;;;;;;5068435;28;20213;-53
2022/11/29 10:37:54;;;;;;;276.63;97.47;;;9.20;99.90;;;;;;5059674;28;20229;-53
2022/11/29 10:40:45;;;;;;;42.70;32.20;;;9.30;99.90;;;;;;5056690;28;20674;-54
2022/11/29 10:43:14;;;;;;;34.80;28.60;;;9.30;99.90;;;;;;5067881;28;20205;-54
2022/11/29 10:45:48;;;;;;;509.57;141.40;;;9.40;99.90;;;;;;5067616;28;20283;-53
2022/11/29 10:48:19;;;;;;;37.13;32.47;;;9.40;99.90;;;;;;5068228;28;20201;-53
2022/11/29 10:50:50;;;;;;;463.00;137.80;;;9.50;99.90;;;;;;5059772;28;20294;-53
2022/11/29 10:53:24;;;;;;;260.43;99.57;;;9.50;99.90;;;;;;5062127;28;20332;-54
2022/11/29 10:55:59;;;;;;;222.67;78.60;;;9.50;99.90;;;;;;5069858;28;20204;-53
2022/11/29 10:58:29;;;;;;;998.90;358.90;;;9.60;99.90;;;;;;5072505;28;20254;-52
2022/11/29 11:00:59;;;;;;;543.13;167.10;;;9.70;99.90;;;;;;5072642;28;20776;-53
2022/11/29 11:03:32;;;;;;;737.80;229.10;;;9.60;99.90;;;;;;5071856;28;20209;-54
2022/11/29 11:06:04;;;;;;;600.20;159.83;;;9.60;99.90;;;;;;5071743;28;20229;-53
2022/11/29 11:08:34;;;;;;;524.60;91.13;;;9.60;99.90;;;;;;5067646;28;20301;-54
2022/11/29 11:11:04;;;;;;;740.77;176.83;;;9.50;99.90;;;;;;5071849;28;20205;-53
2022/11/29 11:13:33;;;;;;;456.07;131.47;;;9.40;99.90;;;;;;5071683;28;20580;-53
2022/11/29 11:16:10;;;;;;;469.83;119.87;;;9.50;99.90;;;;;;5071228;28;20320;-53
2022/11/29 11:18:38;;;;;;;266.43;81.80;;;9.40;99.90;;;;;;5072368;28;20578;-54
2022/11/29 11:21:10;;;;;;;486.03;145.80;;;9.40;99.90;;;;;;5071491;28;20297;-53
2022/11/29 11:23:45;;;;;;;297.83;108.33;;;9.40;99.90;;;;;;5071874;28;20202;-54
2022/11/29 11:26:15;;;;;;;485.57;158.00;;;9.30;99.90;;;;;;5071815;28;20254;-53
2022/11/29 11:28:48;;;;;;;486.30;169.47;;;9.40;99.90;;;;;;5064528;28;20309;-53
2022/11/29 11:31:25;;;;;;;113.57;49.57;;;9.50;99.90;;;;;;5071852;28;20215;-53
2022/11/29 11:33:53;;;;;;;267.97;71.30;;;9.60;99.90;;;;;;5071603;28;20580;-53
2022/11/29 11:36:24;;;;;;;419.77;94.97;;;9.60;99.90;;;;;;5070997;28;20235;-53
2022/11/29 11:38:55;;;;;;;501.50;137.03;;;9.60;99.90;;;;;;5071469;28;20738;-53
2022/11/29 11:42:35;;;;;;;127.63;52.10;;;9.60;99.90;;;;;;5071625;28;20205;-53
2022/11/29 11:44:39;;;;;;;813.43;275.57;;;9.60;99.90;;;;;;5070373;28;20303;-53
2022/11/29 11:47:18;;;;;;;204.97;89.60;;;9.70;99.90;;;;;;5071129;28;20599;-53
2022/11/29 11:49:49;;;;;;;97.53;33.27;;;9.70;99.90;;;;;;5071787;28;20201;-53
2022/11/29 11:52:21;;;;;;;704.97;185.60;;;9.80;99.90;;;;;;5060622;28;20693;-53
2022/11/29 11:54:53;;;;;;;1547.73;450.43;;;9.90;99.90;;;;;;5071332;28;20205;-53
2022/11/29 11:57:22;;;;;;;840.90;213.67;;;9.90;99.90;;;;;;5071585;28;20252;-53
2022/11/29 11:59:52;;;;;;;331.10;82.93;;;9.90;99.90;;;;;;5074113;28;20296;-53
2022/11/29 12:02:28;;;;;;;804.00;198.17;;;10.00;99.90;;;;;;5075223;28;20236;-53
2022/11/29 12:05:00;;;;;;;716.00;211.50;;;9.90;99.90;;;;;;5075466;28;20264;-53
2022/11/29 12:07:33;;;;;;;1283.40;399.93;;;10.00;99.90;;;;;;5072614;28;20298;-53
2022/11/29 12:10:26;;;;;;;618.57;152.23;;;10.00;99.90;;;;;;5071619;28;20441;-53
2022/11/29 12:12:56;;;;;;;765.63;219.57;;;10.10;99.90;;;;;;5071358;28;20291;-53
2022/11/29 12:15:28;;;;;;;839.80;276.77;;;10.10;99.90;;;;;;5070719;28;20757;-54
2022/11/29 12:18:01;;;;;;;917.10;244.57;;;10.10;99.90;;;;;;5057553;28;20265;-54
2022/11/29 12:20:36;;;;;;;958.63;259.20;;;10.20;99.90;;;;;;5070351;28;20208;-53
2022/11/29 12:23:30;;;;;;;469.23;157.67;;;10.30;99.90;;;;;;5070617;28;20219;-53
2022/11/29 12:26:05;;;;;;;1575.60;521.13;;;10.30;99.90;;;;;;5070369;28;20759;-53
2022/11/29 12:28:35;;;;;;;1925.57;503.17;;;10.20;99.90;;;;;;5057277;28;20582;-53
2022/11/29 12:31:16;;;;;;;231.60;87.47;;;10.20;99.90;;;;;;5071023;28;20617;-53
2022/11/29 12:33:50;;;;;;;976.47;271.67;;;10.20;99.90;;;;;;5069920;28;20228;-53
2022/11/29 12:36:29;;;;;;;1346.13;418.20;;;10.20;99.90;;;;;;5062686;28;20311;-53
2022/11/29 12:39:21;;;;;;;693.10;257.03;;;10.20;99.90;;;;;;5058136;28;20221;-53
2022/11/29 12:41:55;;;;;;;1440.40;450.67;;;10.30;99.90;;;;;;5068368;28;20758;-54
2022/11/29 12:44:38;;;;;;;339.17;139.90;;;10.40;99.90;;;;;;5068750;28;20300;-53
2022/11/29 12:47:15;;;;;;;192.23;62.60;;;10.40;99.90;;;;;;5068058;28;20225;-53
2022/11/29 12:50:22;;;;;;;818.00;262.40;;;10.50;99.90;;;;;;5069423;28;20213;-54
2022/11/29 12:53:01;;;;;;;754.43;202.67;;;10.60;99.90;;;;;;5054524;28;20200;-53
2022/11/29 12:55:39;;;;;;;955.97;341.10;;;10.70;99.90;;;;;;5065879;28;20673;-53
2022/11/29 12:58:16;;;;;;;1218.67;336.13;;;10.70;99.90;;;;;;5067184;28;20299;-53
2022/11/29 13:00:56;;;;;;;1188.67;302.27;;;10.70;99.90;;;;;;5067756;28;20254;-54
2022/11/29 13:03:30;;;;;;;1381.53;358.00;;;10.70;99.90;;;;;;5069895;28;20239;-53
2022/11/29 13:06:08;;;;;;;1537.27;551.97;;;10.60;99.90;;;;;;5070209;28;20312;-53
2022/11/29 13:08:53;;;;;;;1665.30;592.20;;;10.60;99.90;;;;;;5069876;28;20288;-54
2022/11/29 13:11:25;;;;;;;1999.90;317.30;;;10.60;99.90;;;;;;5070341;28;20287;-53
2022/11/29 13:14:02;;;;;;;433.33;143.80;;;10.50;99.90;;;;;;5060636;28;20851;-53
2022/11/29 13:16:57;;;;;;;326.80;90.43;;;10.50;99.90;;;;;;5065754;28;20232;-53
2022/11/29 13:19:34;;;;;;;662.57;218.77;;;10.50;99.90;;;;;;5069902;28;20884;-53